sensor_id;sensor_type;location;lat;lon;timestamp;P1;durP1;ratioP1;P2;durP2;ratioP2
81697;SDS011;71109;52.514;5.708;2024-01-16T00:00:06;2.65;;;0.75;;
81697;SDS011;71109;52.514;5.708;2024-01-16T00:02:33;6.60;;;1.10;;
81697;SDS011;71109;52.514;5.708;2024-01-16T00:04:58;5.07;;;0.85;;
81697;SDS011;71109;52.514;5.708;2024-01-16T00:07:24;1.93;;;0.97;;
81697;SDS011;71109;52.514;5.708;2024-01-16T00:09:49;10.63;;;1.40;;
81697;SDS011;71109;52.514;5.708;2024-01-16T00:12:17;10.40;;;1.60;;
81697;SDS011;71109;52.514;5.708;2024-01-16T00:14:43;4.05;;;0.98;;
81697;SDS011;71109;52.514;5.708;2024-01-16T00:17:08;8.52;;;1.02;;
81697;SDS011;71109;52.514;5.708;2024-01-16T00:19:33;7.20;;;1.33;;
81697;SDS011;71109;52.514;5.708;2024-01-16T00:21:59;10.83;;;1.27;;
81697;SDS011;71109;52.514;5.708;2024-01-16T00:24:25;10.10;;;0.90;;
81697;SDS011;71109;52.514;5.708;2024-01-16T00:26:51;9.77;;;1.25;;
81697;SDS011;71109;52.514;5.708;2024-01-16T00:29:16;2.15;;;0.70;;
81697;SDS011;71109;52.514;5.708;2024-01-16T00:31:41;7.57;;;0.90;;
81697;SDS011;71109;52.514;5.708;2024-01-16T00:34:07;3.28;;;0.90;;
81697;SDS011;71109;52.514;5.708;2024-01-16T00:36:32;7.10;;;1.33;;
81697;SDS011;71109;52.514;5.708;2024-01-16T00:38:58;8.02;;;0.90;;
81697;SDS011;71109;52.514;5.708;2024-01-16T00:41:23;6.97;;;1.05;;
81697;SDS011;71109;52.514;5.708;2024-01-16T00:43:49;3.90;;;0.85;;
81697;SDS011;71109;52.514;5.708;2024-01-16T00:46:14;0.45;;;0.45;;
81697;SDS011;71109;52.514;5.708;2024-01-16T00:48:39;6.03;;;0.90;;
81697;SDS011;71109;52.514;5.708;2024-01-16T00:51:05;1.65;;;0.52;;
81697;SDS011;71109;52.514;5.708;2024-01-16T00:53:30;5.03;;;0.87;;
81697;SDS011;71109;52.514;5.708;2024-01-16T00:55:55;3.33;;;0.60;;
81697;SDS011;71109;52.514;5.708;2024-01-16T00:58:22;1.73;;;0.73;;
81697;SDS011;71109;52.514;5.708;2024-01-16T01:00:47;8.75;;;1.48;;
81697;SDS011;71109;52.514;5.708;2024-01-16T01:03:13;8.85;;;1.27;;
81697;SDS011;71109;52.514;5.708;2024-01-16T01:05:38;3.67;;;0.97;;
81697;SDS011;71109;52.514;5.708;2024-01-16T01:08:04;7.37;;;1.20;;
81697;SDS011;71109;52.514;5.708;2024-01-16T01:10:29;3.60;;;1.05;;
81697;SDS011;71109;52.514;5.708;2024-01-16T01:12:57;4.75;;;0.77;;
81697;SDS011;71109;52.514;5.708;2024-01-16T01:15:23;6.17;;;1.13;;
81697;SDS011;71109;52.514;5.708;2024-01-16T01:17:49;14.57;;;1.58;;
81697;SDS011;71109;52.514;5.708;2024-01-16T01:20:14;9.05;;;1.45;;
81697;SDS011;71109;52.514;5.708;2024-01-16T01:22:40;8.88;;;1.33;;
81697;SDS011;71109;52.514;5.708;2024-01-16T01:25:05;4.78;;;1.20;;
81697;SDS011;71109;52.514;5.708;2024-01-16T01:27:31;3.92;;;1.27;;
81697;SDS011;71109;52.514;5.708;2024-01-16T01:29:57;3.63;;;0.80;;
81697;SDS011;71109;52.514;5.708;2024-01-16T01:32:23;10.70;;;0.93;;
81697;SDS011;71109;52.514;5.708;2024-01-16T01:34:48;9.63;;;1.73;;
81697;SDS011;71109;52.514;5.708;2024-01-16T01:37:13;6.28;;;1.30;;
81697;SDS011;71109;52.514;5.708;2024-01-16T01:39:39;8.02;;;0.65;;
81697;SDS011;71109;52.514;5.708;2024-01-16T01:42:04;1.23;;;0.55;;
81697;SDS011;71109;52.514;5.708;2024-01-16T01:44:30;11.77;;;0.93;;
81697;SDS011;71109;52.514;5.708;2024-01-16T01:46:55;10.18;;;1.05;;
81697;SDS011;71109;52.514;5.708;2024-01-16T01:49:21;6.30;;;0.80;;
81697;SDS011;71109;52.514;5.708;2024-01-16T01:51:47;7.30;;;1.50;;
81697;SDS011;71109;52.514;5.708;2024-01-16T01:54:13;2.28;;;0.80;;
81697;SDS011;71109;52.514;5.708;2024-01-16T01:56:41;3.60;;;0.60;;
81697;SDS011;71109;52.514;5.708;2024-01-16T01:59:07;9.43;;;1.20;;
81697;SDS011;71109;52.514;5.708;2024-01-16T02:01:33;0.75;;;0.52;;
81697;SDS011;71109;52.514;5.708;2024-01-16T02:03:59;4.10;;;1.27;;
81697;SDS011;71109;52.514;5.708;2024-01-16T02:06:25;6.43;;;1.17;;
81697;SDS011;71109;52.514;5.708;2024-01-16T02:08:51;5.22;;;1.15;;
81697;SDS011;71109;52.514;5.708;2024-01-16T02:11:16;3.88;;;1.27;;
81697;SDS011;71109;52.514;5.708;2024-01-16T02:13:42;4.55;;;1.08;;
81697;SDS011;71109;52.514;5.708;2024-01-16T02:16:22;6.57;;;0.82;;
81697;SDS011;71109;52.514;5.708;2024-01-16T02:18:49;5.43;;;1.20;;
81697;SDS011;71109;52.514;5.708;2024-01-16T02:21:15;3.10;;;0.80;;
81697;SDS011;71109;52.514;5.708;2024-01-16T02:23:43;9.18;;;1.10;;
81697;SDS011;71109;52.514;5.708;2024-01-16T02:26:09;0.65;;;0.47;;
81697;SDS011;71109;52.514;5.708;2024-01-16T02:28:34;0.73;;;0.52;;
81697;SDS011;71109;52.514;5.708;2024-01-16T02:30:59;2.60;;;0.85;;
81697;SDS011;71109;52.514;5.708;2024-01-16T02:33:25;10.70;;;1.08;;
81697;SDS011;71109;52.514;5.708;2024-01-16T02:35:50;7.20;;;0.88;;
81697;SDS011;71109;52.514;5.708;2024-01-16T02:38:16;4.10;;;0.83;;
81697;SDS011;71109;52.514;5.708;2024-01-16T02:40:41;11.47;;;1.27;;
81697;SDS011;71109;52.514;5.708;2024-01-16T02:43:06;3.35;;;1.52;;
81697;SDS011;71109;52.514;5.708;2024-01-16T02:45:32;4.63;;;0.85;;
81697;SDS011;71109;52.514;5.708;2024-01-16T02:47:57;8.98;;;1.50;;
81697;SDS011;71109;52.514;5.708;2024-01-16T02:50:23;5.45;;;1.30;;
81697;SDS011;71109;52.514;5.708;2024-01-16T02:52:48;8.23;;;0.70;;
81697;SDS011;71109;52.514;5.708;2024-01-16T02:55:13;5.50;;;0.65;;
81697;SDS011;71109;52.514;5.708;2024-01-16T02:57:39;5.45;;;1.02;;
81697;SDS011;71109;52.514;5.708;2024-01-16T03:00:05;0.95;;;0.52;;
81697;SDS011;71109;52.514;5.708;2024-01-16T03:02:31;3.60;;;0.98;;
81697;SDS011;71109;52.514;5.708;2024-01-16T03:04:56;13.70;;;1.10;;
81697;SDS011;71109;52.514;5.708;2024-01-16T03:07:21;1.90;;;0.75;;
81697;SDS011;71109;52.514;5.708;2024-01-16T03:09:47;5.82;;;1.35;;
81697;SDS011;71109;52.514;5.708;2024-01-16T03:12:12;8.75;;;0.88;;
81697;SDS011;71109;52.514;5.708;2024-01-16T03:14:37;1.92;;;1.13;;
81697;SDS011;71109;52.514;5.708;2024-01-16T03:17:04;5.05;;;1.52;;
81697;SDS011;71109;52.514;5.708;2024-01-16T03:19:29;6.30;;;0.95;;
81697;SDS011;71109;52.514;5.708;2024-01-16T03:21:55;2.63;;;0.88;;
81697;SDS011;71109;52.514;5.708;2024-01-16T03:24:20;5.50;;;1.10;;
81697;SDS011;71109;52.514;5.708;2024-01-16T03:26:46;6.45;;;1.60;;
81697;SDS011;71109;52.514;5.708;2024-01-16T03:29:11;5.68;;;0.63;;
81697;SDS011;71109;52.514;5.708;2024-01-16T03:31:36;8.55;;;1.00;;
81697;SDS011;71109;52.514;5.708;2024-01-16T03:34:02;5.80;;;1.17;;
81697;SDS011;71109;52.514;5.708;2024-01-16T03:36:27;5.40;;;1.25;;
81697;SDS011;71109;52.514;5.708;2024-01-16T03:38:53;5.95;;;0.75;;
81697;SDS011;71109;52.514;5.708;2024-01-16T03:41:18;4.82;;;0.93;;
81697;SDS011;71109;52.514;5.708;2024-01-16T03:43:44;1.55;;;0.80;;
81697;SDS011;71109;52.514;5.708;2024-01-16T03:46:12;3.85;;;1.13;;
81697;SDS011;71109;52.514;5.708;2024-01-16T03:48:37;9.00;;;1.48;;
81697;SDS011;71109;52.514;5.708;2024-01-16T03:51:03;1.13;;;0.83;;
81697;SDS011;71109;52.514;5.708;2024-01-16T03:53:28;1.48;;;0.75;;
81697;SDS011;71109;52.514;5.708;2024-01-16T03:55:54;7.40;;;1.30;;
81697;SDS011;71109;52.514;5.708;2024-01-16T03:58:19;2.43;;;1.03;;
81697;SDS011;71109;52.514;5.708;2024-01-16T04:00:44;6.20;;;1.13;;
81697;SDS011;71109;52.514;5.708;2024-01-16T04:03:10;1.40;;;0.63;;
81697;SDS011;71109;52.514;5.708;2024-01-16T04:05:36;4.95;;;0.70;;
81697;SDS011;71109;52.514;5.708;2024-01-16T04:08:01;9.77;;;1.07;;
81697;SDS011;71109;52.514;5.708;2024-01-16T04:10:27;2.65;;;1.00;;
81697;SDS011;71109;52.514;5.708;2024-01-16T04:12:52;7.80;;;0.83;;
81697;SDS011;71109;52.514;5.708;2024-01-16T04:15:17;3.75;;;0.90;;
81697;SDS011;71109;52.514;5.708;2024-01-16T04:17:43;8.00;;;1.27;;
81697;SDS011;71109;52.514;5.708;2024-01-16T04:20:08;3.63;;;1.20;;
81697;SDS011;71109;52.514;5.708;2024-01-16T04:22:34;5.90;;;1.05;;
81697;SDS011;71109;52.514;5.708;2024-01-16T04:25:00;12.32;;;0.95;;
81697;SDS011;71109;52.514;5.708;2024-01-16T04:27:25;15.25;;;1.38;;
81697;SDS011;71109;52.514;5.708;2024-01-16T04:29:51;3.30;;;1.38;;
81697;SDS011;71109;52.514;5.708;2024-01-16T04:32:16;9.85;;;1.55;;
81697;SDS011;71109;52.514;5.708;2024-01-16T04:34:41;6.93;;;1.23;;
81697;SDS011;71109;52.514;5.708;2024-01-16T04:37:07;2.97;;;1.40;;
81697;SDS011;71109;52.514;5.708;2024-01-16T04:39:32;11.20;;;1.80;;
81697;SDS011;71109;52.514;5.708;2024-01-16T04:41:58;7.57;;;1.23;;
81697;SDS011;71109;52.514;5.708;2024-01-16T04:44:23;7.43;;;1.73;;
81697;SDS011;71109;52.514;5.708;2024-01-16T04:46:48;10.60;;;2.10;;
81697;SDS011;71109;52.514;5.708;2024-01-16T04:49:14;6.07;;;1.50;;
81697;SDS011;71109;52.514;5.708;2024-01-16T04:51:39;9.37;;;1.73;;
81697;SDS011;71109;52.514;5.708;2024-01-16T04:54:04;9.70;;;1.93;;
81697;SDS011;71109;52.514;5.708;2024-01-16T04:56:30;2.47;;;1.70;;
81697;SDS011;71109;52.514;5.708;2024-01-16T04:58:55;1.43;;;1.17;;
81697;SDS011;71109;52.514;5.708;2024-01-16T05:01:20;6.70;;;1.67;;
81697;SDS011;71109;52.514;5.708;2024-01-16T05:03:46;2.63;;;1.38;;
81697;SDS011;71109;52.514;5.708;2024-01-16T05:06:14;6.10;;;1.50;;
81697;SDS011;71109;52.514;5.708;2024-01-16T05:08:40;6.82;;;1.60;;
81697;SDS011;71109;52.514;5.708;2024-01-16T05:11:09;3.95;;;1.02;;
81697;SDS011;71109;52.514;5.708;2024-01-16T05:13:34;5.82;;;1.38;;
81697;SDS011;71109;52.514;5.708;2024-01-16T05:16:00;2.47;;;0.93;;
81697;SDS011;71109;52.514;5.708;2024-01-16T05:18:25;4.72;;;1.30;;
81697;SDS011;71109;52.514;5.708;2024-01-16T05:20:50;4.63;;;1.63;;
81697;SDS011;71109;52.514;5.708;2024-01-16T05:23:16;10.03;;;1.67;;
81697;SDS011;71109;52.514;5.708;2024-01-16T05:25:41;3.57;;;1.60;;
81697;SDS011;71109;52.514;5.708;2024-01-16T05:28:06;6.18;;;1.70;;
81697;SDS011;71109;52.514;5.708;2024-01-16T05:30:32;8.90;;;2.27;;
81697;SDS011;71109;52.514;5.708;2024-01-16T05:32:58;9.63;;;1.58;;
81697;SDS011;71109;52.514;5.708;2024-01-16T05:35:26;6.10;;;2.13;;
81697;SDS011;71109;52.514;5.708;2024-01-16T05:37:55;4.18;;;1.80;;
81697;SDS011;71109;52.514;5.708;2024-01-16T05:40:20;12.07;;;2.13;;
81697;SDS011;71109;52.514;5.708;2024-01-16T05:42:46;4.82;;;1.33;;
81697;SDS011;71109;52.514;5.708;2024-01-16T05:45:12;2.78;;;1.42;;
81697;SDS011;71109;52.514;5.708;2024-01-16T05:47:38;7.30;;;1.60;;
81697;SDS011;71109;52.514;5.708;2024-01-16T05:50:04;14.48;;;1.98;;
81697;SDS011;71109;52.514;5.708;2024-01-16T05:52:30;3.75;;;1.60;;
81697;SDS011;71109;52.514;5.708;2024-01-16T05:54:55;2.43;;;1.43;;
81697;SDS011;71109;52.514;5.708;2024-01-16T05:57:22;2.97;;;1.38;;
81697;SDS011;71109;52.514;5.708;2024-01-16T05:59:48;2.78;;;1.85;;
81697;SDS011;71109;52.514;5.708;2024-01-16T06:02:13;1.97;;;1.40;;
81697;SDS011;71109;52.514;5.708;2024-01-16T06:04:39;2.53;;;1.92;;
81697;SDS011;71109;52.514;5.708;2024-01-16T06:07:04;8.43;;;2.00;;
81697;SDS011;71109;52.514;5.708;2024-01-16T06:09:32;4.53;;;2.33;;
81697;SDS011;71109;52.514;5.708;2024-01-16T06:11:57;10.80;;;2.83;;
81697;SDS011;71109;52.514;5.708;2024-01-16T06:14:23;5.87;;;2.10;;
81697;SDS011;71109;52.514;5.708;2024-01-16T06:16:48;3.37;;;2.33;;
81697;SDS011;71109;52.514;5.708;2024-01-16T06:19:14;10.07;;;2.85;;
81697;SDS011;71109;52.514;5.708;2024-01-16T06:21:39;4.85;;;1.98;;
81697;SDS011;71109;52.514;5.708;2024-01-16T06:24:05;4.57;;;2.28;;
81697;SDS011;71109;52.514;5.708;2024-01-16T06:26:31;9.00;;;2.55;;
81697;SDS011;71109;52.514;5.708;2024-01-16T06:28:56;6.53;;;2.42;;
81697;SDS011;71109;52.514;5.708;2024-01-16T06:31:22;4.57;;;2.85;;
81697;SDS011;71109;52.514;5.708;2024-01-16T06:33:48;4.10;;;2.13;;
81697;SDS011;71109;52.514;5.708;2024-01-16T06:36:13;4.67;;;2.10;;
81697;SDS011;71109;52.514;5.708;2024-01-16T06:38:39;3.43;;;1.73;;
81697;SDS011;71109;52.514;5.708;2024-01-16T06:41:05;6.75;;;2.55;;
81697;SDS011;71109;52.514;5.708;2024-01-16T06:43:31;6.15;;;2.30;;
81697;SDS011;71109;52.514;5.708;2024-01-16T06:45:56;5.07;;;2.70;;
81697;SDS011;71109;52.514;5.708;2024-01-16T06:48:21;9.57;;;2.07;;
81697;SDS011;71109;52.514;5.708;2024-01-16T06:50:47;8.60;;;2.10;;
81697;SDS011;71109;52.514;5.708;2024-01-16T06:53:12;7.07;;;2.40;;
81697;SDS011;71109;52.514;5.708;2024-01-16T06:55:38;10.13;;;1.85;;
81697;SDS011;71109;52.514;5.708;2024-01-16T06:58:03;9.80;;;2.42;;
81697;SDS011;71109;52.514;5.708;2024-01-16T07:00:29;9.57;;;2.80;;
81697;SDS011;71109;52.514;5.708;2024-01-16T07:02:54;13.27;;;3.03;;
81697;SDS011;71109;52.514;5.708;2024-01-16T07:05:20;7.80;;;2.38;;
81697;SDS011;71109;52.514;5.708;2024-01-16T07:07:46;7.82;;;2.80;;
81697;SDS011;71109;52.514;5.708;2024-01-16T07:10:12;10.70;;;2.83;;
81697;SDS011;71109;52.514;5.708;2024-01-16T07:12:43;6.55;;;2.58;;
81697;SDS011;71109;52.514;5.708;2024-01-16T07:15:08;6.47;;;3.45;;
81697;SDS011;71109;52.514;5.708;2024-01-16T07:17:34;6.38;;;2.67;;
81697;SDS011;71109;52.514;5.708;2024-01-16T07:19:59;7.97;;;3.10;;
81697;SDS011;71109;52.514;5.708;2024-01-16T07:22:25;6.20;;;2.83;;
81697;SDS011;71109;52.514;5.708;2024-01-16T07:24:50;7.73;;;2.37;;
81697;SDS011;71109;52.514;5.708;2024-01-16T07:27:15;9.77;;;3.47;;
81697;SDS011;71109;52.514;5.708;2024-01-16T07:29:41;17.83;;;3.23;;
81697;SDS011;71109;52.514;5.708;2024-01-16T07:32:06;7.47;;;3.08;;
81697;SDS011;71109;52.514;5.708;2024-01-16T07:34:32;11.45;;;2.72;;
81697;SDS011;71109;52.514;5.708;2024-01-16T07:36:58;4.10;;;2.75;;
81697;SDS011;71109;52.514;5.708;2024-01-16T07:39:23;8.70;;;1.85;;
81697;SDS011;71109;52.514;5.708;2024-01-16T07:41:49;6.68;;;2.17;;
81697;SDS011;71109;52.514;5.708;2024-01-16T07:44:14;8.33;;;2.87;;
81697;SDS011;71109;52.514;5.708;2024-01-16T07:46:39;4.73;;;2.13;;
81697;SDS011;71109;52.514;5.708;2024-01-16T07:49:05;6.10;;;2.47;;
81697;SDS011;71109;52.514;5.708;2024-01-16T07:51:30;6.82;;;2.78;;
81697;SDS011;71109;52.514;5.708;2024-01-16T07:54:06;6.25;;;2.95;;
81697;SDS011;71109;52.514;5.708;2024-01-16T07:56:35;9.48;;;3.15;;
81697;SDS011;71109;52.514;5.708;2024-01-16T07:59:01;10.15;;;2.85;;
81697;SDS011;71109;52.514;5.708;2024-01-16T08:01:27;5.50;;;2.63;;
81697;SDS011;71109;52.514;5.708;2024-01-16T08:03:56;8.77;;;3.30;;
81697;SDS011;71109;52.514;5.708;2024-01-16T08:06:21;7.15;;;3.10;;
81697;SDS011;71109;52.514;5.708;2024-01-16T08:08:48;7.45;;;2.95;;
81697;SDS011;71109;52.514;5.708;2024-01-16T08:11:14;5.57;;;2.63;;
81697;SDS011;71109;52.514;5.708;2024-01-16T08:13:39;5.28;;;2.35;;
81697;SDS011;71109;52.514;5.708;2024-01-16T08:16:05;7.18;;;2.30;;
81697;SDS011;71109;52.514;5.708;2024-01-16T08:18:30;12.90;;;3.35;;
81697;SDS011;71109;52.514;5.708;2024-01-16T08:20:56;11.68;;;2.78;;
81697;SDS011;71109;52.514;5.708;2024-01-16T08:23:22;10.30;;;2.33;;
81697;SDS011;71109;52.514;5.708;2024-01-16T08:25:47;10.63;;;2.60;;
81697;SDS011;71109;52.514;5.708;2024-01-16T08:28:13;14.75;;;4.25;;
81697;SDS011;71109;52.514;5.708;2024-01-16T08:30:39;4.00;;;2.88;;
81697;SDS011;71109;52.514;5.708;2024-01-16T08:33:04;3.95;;;2.42;;
81697;SDS011;71109;52.514;5.708;2024-01-16T08:35:30;5.53;;;2.43;;
81697;SDS011;71109;52.514;5.708;2024-01-16T08:37:55;7.20;;;2.60;;
81697;SDS011;71109;52.514;5.708;2024-01-16T08:40:20;2.60;;;2.00;;
81697;SDS011;71109;52.514;5.708;2024-01-16T08:42:46;8.95;;;2.10;;
81697;SDS011;71109;52.514;5.708;2024-01-16T08:45:16;3.78;;;2.10;;
81697;SDS011;71109;52.514;5.708;2024-01-16T08:47:41;10.30;;;2.40;;
81697;SDS011;71109;52.514;5.708;2024-01-16T08:50:07;4.13;;;1.27;;
81697;SDS011;71109;52.514;5.708;2024-01-16T08:52:34;3.40;;;1.63;;
81697;SDS011;71109;52.514;5.708;2024-01-16T08:54:59;5.13;;;2.15;;
81697;SDS011;71109;52.514;5.708;2024-01-16T08:57:25;5.83;;;2.30;;
81697;SDS011;71109;52.514;5.708;2024-01-16T08:59:50;4.72;;;1.77;;
81697;SDS011;71109;52.514;5.708;2024-01-16T09:02:15;3.20;;;2.50;;
81697;SDS011;71109;52.514;5.708;2024-01-16T09:04:41;9.65;;;2.22;;
81697;SDS011;71109;52.514;5.708;2024-01-16T09:07:06;11.85;;;3.28;;
81697;SDS011;71109;52.514;5.708;2024-01-16T09:09:31;4.07;;;1.93;;
81697;SDS011;71109;52.514;5.708;2024-01-16T09:11:57;9.45;;;1.88;;
81697;SDS011;71109;52.514;5.708;2024-01-16T09:14:23;8.30;;;2.08;;
81697;SDS011;71109;52.514;5.708;2024-01-16T09:16:48;7.50;;;2.30;;
81697;SDS011;71109;52.514;5.708;2024-01-16T09:19:13;10.02;;;2.13;;
81697;SDS011;71109;52.514;5.708;2024-01-16T09:21:39;4.27;;;1.90;;
81697;SDS011;71109;52.514;5.708;2024-01-16T09:24:04;14.63;;;2.53;;
81697;SDS011;71109;52.514;5.708;2024-01-16T09:26:32;11.85;;;3.05;;
81697;SDS011;71109;52.514;5.708;2024-01-16T09:28:57;11.60;;;2.87;;
81697;SDS011;71109;52.514;5.708;2024-01-16T09:31:23;12.77;;;2.47;;
81697;SDS011;71109;52.514;5.708;2024-01-16T09:33:48;3.92;;;2.53;;
81697;SDS011;71109;52.514;5.708;2024-01-16T09:36:14;6.40;;;2.30;;
81697;SDS011;71109;52.514;5.708;2024-01-16T09:38:39;11.13;;;2.40;;
81697;SDS011;71109;52.514;5.708;2024-01-16T09:41:04;3.88;;;2.00;;
81697;SDS011;71109;52.514;5.708;2024-01-16T09:43:30;6.00;;;2.58;;
81697;SDS011;71109;52.514;5.708;2024-01-16T09:45:56;4.95;;;2.67;;
81697;SDS011;71109;52.514;5.708;2024-01-16T09:48:26;8.98;;;2.78;;
81697;SDS011;71109;52.514;5.708;2024-01-16T09:50:53;4.10;;;2.67;;
81697;SDS011;71109;52.514;5.708;2024-01-16T09:53:18;10.10;;;3.13;;
81697;SDS011;71109;52.514;5.708;2024-01-16T09:55:44;7.50;;;3.20;;
81697;SDS011;71109;52.514;5.708;2024-01-16T09:58:09;16.38;;;4.05;;
81697;SDS011;71109;52.514;5.708;2024-01-16T10:00:39;11.60;;;3.75;;
81697;SDS011;71109;52.514;5.708;2024-01-16T10:03:07;12.40;;;3.60;;
81697;SDS011;71109;52.514;5.708;2024-01-16T10:05:32;5.03;;;3.47;;
81697;SDS011;71109;52.514;5.708;2024-01-16T10:07:58;15.70;;;3.85;;
81697;SDS011;71109;52.514;5.708;2024-01-16T10:10:24;16.07;;;3.27;;
81697;SDS011;71109;52.514;5.708;2024-01-16T10:12:53;6.70;;;3.08;;
81697;SDS011;71109;52.514;5.708;2024-01-16T10:15:18;7.80;;;4.20;;
81697;SDS011;71109;52.514;5.708;2024-01-16T10:17:45;9.55;;;4.03;;
81697;SDS011;71109;52.514;5.708;2024-01-16T10:20:11;8.97;;;4.70;;
81697;SDS011;71109;52.514;5.708;2024-01-16T10:22:43;21.25;;;6.38;;
81697;SDS011;71109;52.514;5.708;2024-01-16T10:25:21;15.43;;;5.25;;
81697;SDS011;71109;52.514;5.708;2024-01-16T10:27:47;14.45;;;4.80;;
81697;SDS011;71109;52.514;5.708;2024-01-16T10:30:14;11.57;;;4.53;;
81697;SDS011;71109;52.514;5.708;2024-01-16T10:32:40;14.77;;;6.17;;
81697;SDS011;71109;52.514;5.708;2024-01-16T10:35:06;12.95;;;6.43;;
81697;SDS011;71109;52.514;5.708;2024-01-16T10:40:14;10.85;;;5.43;;
81697;SDS011;71109;52.514;5.708;2024-01-16T10:42:41;11.88;;;5.35;;
81697;SDS011;71109;52.514;5.708;2024-01-16T10:45:06;13.15;;;5.03;;
81697;SDS011;71109;52.514;5.708;2024-01-16T10:47:32;18.08;;;7.32;;
81697;SDS011;71109;52.514;5.708;2024-01-16T10:50:03;9.10;;;4.43;;
81697;SDS011;71109;52.514;5.708;2024-01-16T10:52:30;13.68;;;6.30;;
81697;SDS011;71109;52.514;5.708;2024-01-16T10:54:58;14.45;;;6.20;;
81697;SDS011;71109;52.514;5.708;2024-01-16T10:57:26;8.40;;;4.00;;
81697;SDS011;71109;52.514;5.708;2024-01-16T11:00:02;11.63;;;4.50;;
81697;SDS011;71109;52.514;5.708;2024-01-16T11:02:31;16.77;;;6.30;;
81697;SDS011;71109;52.514;5.708;2024-01-16T11:05:09;8.07;;;4.38;;
81697;SDS011;71109;52.514;5.708;2024-01-16T11:07:36;14.63;;;5.20;;
81697;SDS011;71109;52.514;5.708;2024-01-16T11:10:02;11.07;;;4.00;;
81697;SDS011;71109;52.514;5.708;2024-01-16T11:12:28;11.52;;;4.13;;
81697;SDS011;71109;52.514;5.708;2024-01-16T11:14:55;10.05;;;3.47;;
81697;SDS011;71109;52.514;5.708;2024-01-16T11:17:26;10.38;;;3.20;;
81697;SDS011;71109;52.514;5.708;2024-01-16T11:19:52;9.00;;;3.22;;
81697;SDS011;71109;52.514;5.708;2024-01-16T11:22:17;9.27;;;2.33;;
81697;SDS011;71109;52.514;5.708;2024-01-16T11:24:43;6.30;;;2.75;;
81697;SDS011;71109;52.514;5.708;2024-01-16T11:27:20;5.32;;;2.30;;
81697;SDS011;71109;52.514;5.708;2024-01-16T11:29:49;6.50;;;3.05;;
81697;SDS011;71109;52.514;5.708;2024-01-16T11:32:32;8.00;;;3.03;;
81697;SDS011;71109;52.514;5.708;2024-01-16T11:35:02;8.40;;;2.63;;
81697;SDS011;71109;52.514;5.708;2024-01-16T11:37:31;7.38;;;2.33;;
81697;SDS011;71109;52.514;5.708;2024-01-16T11:42:45;5.60;;;2.60;;
81697;SDS011;71109;52.514;5.708;2024-01-16T11:48:07;8.52;;;2.50;;
81697;SDS011;71109;52.514;5.708;2024-01-16T11:50:40;7.35;;;2.05;;
81697;SDS011;71109;52.514;5.708;2024-01-16T11:53:05;4.32;;;1.70;;
81697;SDS011;71109;52.514;5.708;2024-01-16T11:55:32;6.03;;;2.20;;
81697;SDS011;71109;52.514;5.708;2024-01-16T12:01:05;12.90;;;2.40;;
81697;SDS011;71109;52.514;5.708;2024-01-16T12:03:30;10.00;;;2.20;;
81697;SDS011;71109;52.514;5.708;2024-01-16T12:06:01;10.40;;;2.20;;
81697;SDS011;71109;52.514;5.708;2024-01-16T12:08:27;7.32;;;1.90;;
81697;SDS011;71109;52.514;5.708;2024-01-16T12:10:53;2.70;;;1.80;;
81697;SDS011;71109;52.514;5.708;2024-01-16T12:13:19;3.75;;;1.35;;
81697;SDS011;71109;52.514;5.708;2024-01-16T12:15:44;10.38;;;2.08;;
81697;SDS011;71109;52.514;5.708;2024-01-16T12:18:17;8.48;;;2.20;;
81697;SDS011;71109;52.514;5.708;2024-01-16T12:20:43;5.10;;;1.77;;
81697;SDS011;71109;52.514;5.708;2024-01-16T12:23:09;8.98;;;2.00;;
81697;SDS011;71109;52.514;5.708;2024-01-16T12:25:35;6.45;;;1.73;;
81697;SDS011;71109;52.514;5.708;2024-01-16T12:28:02;11.02;;;2.35;;
81697;SDS011;71109;52.514;5.708;2024-01-16T12:30:29;5.90;;;2.03;;
81697;SDS011;71109;52.514;5.708;2024-01-16T12:33:06;6.22;;;2.05;;
81697;SDS011;71109;52.514;5.708;2024-01-16T12:35:36;6.43;;;1.73;;
81697;SDS011;71109;52.514;5.708;2024-01-16T12:38:02;3.60;;;1.52;;
81697;SDS011;71109;52.514;5.708;2024-01-16T12:40:30;3.10;;;1.98;;
81697;SDS011;71109;52.514;5.708;2024-01-16T12:42:55;4.43;;;1.50;;
81697;SDS011;71109;52.514;5.708;2024-01-16T12:45:21;3.70;;;1.42;;
81697;SDS011;71109;52.514;5.708;2024-01-16T12:47:51;3.92;;;1.67;;
81697;SDS011;71109;52.514;5.708;2024-01-16T12:50:21;3.15;;;2.00;;
81697;SDS011;71109;52.514;5.708;2024-01-16T12:52:48;3.20;;;1.83;;
81697;SDS011;71109;52.514;5.708;2024-01-16T12:55:15;3.17;;;1.70;;
81697;SDS011;71109;52.514;5.708;2024-01-16T12:57:41;5.63;;;2.10;;
81697;SDS011;71109;52.514;5.708;2024-01-16T13:00:22;7.53;;;2.20;;
81697;SDS011;71109;52.514;5.708;2024-01-16T13:02:49;7.28;;;3.00;;
81697;SDS011;71109;52.514;5.708;2024-01-16T13:05:16;5.53;;;2.35;;
81697;SDS011;71109;52.514;5.708;2024-01-16T13:07:42;7.85;;;2.03;;
81697;SDS011;71109;52.514;5.708;2024-01-16T13:10:08;4.43;;;1.90;;
81697;SDS011;71109;52.514;5.708;2024-01-16T13:12:36;5.47;;;2.05;;
81697;SDS011;71109;52.514;5.708;2024-01-16T13:15:02;3.97;;;2.33;;
81697;SDS011;71109;52.514;5.708;2024-01-16T13:17:30;3.22;;;2.05;;
81697;SDS011;71109;52.514;5.708;2024-01-16T13:19:56;13.68;;;2.75;;
81697;SDS011;71109;52.514;5.708;2024-01-16T13:22:22;8.30;;;2.90;;
81697;SDS011;71109;52.514;5.708;2024-01-16T13:24:48;6.82;;;2.58;;
81697;SDS011;71109;52.514;5.708;2024-01-16T13:27:13;10.13;;;2.88;;
81697;SDS011;71109;52.514;5.708;2024-01-16T13:29:39;6.85;;;2.20;;
81697;SDS011;71109;52.514;5.708;2024-01-16T13:32:05;8.98;;;2.17;;
81697;SDS011;71109;52.514;5.708;2024-01-16T13:34:31;5.55;;;2.28;;
81697;SDS011;71109;52.514;5.708;2024-01-16T13:36:58;4.28;;;1.88;;
81697;SDS011;71109;52.514;5.708;2024-01-16T13:39:25;2.83;;;1.48;;
81697;SDS011;71109;52.514;5.708;2024-01-16T13:41:50;10.90;;;2.63;;
81697;SDS011;71109;52.514;5.708;2024-01-16T13:44:16;6.10;;;2.53;;
81697;SDS011;71109;52.514;5.708;2024-01-16T13:46:41;3.10;;;1.58;;
81697;SDS011;71109;52.514;5.708;2024-01-16T13:49:06;4.07;;;1.73;;
81697;SDS011;71109;52.514;5.708;2024-01-16T13:51:32;3.50;;;1.88;;
81697;SDS011;71109;52.514;5.708;2024-01-16T13:54:00;4.57;;;0.90;;
81697;SDS011;71109;52.514;5.708;2024-01-16T13:56:25;7.35;;;1.40;;
81697;SDS011;71109;52.514;5.708;2024-01-16T13:58:51;6.57;;;2.35;;
81697;SDS011;71109;52.514;5.708;2024-01-16T14:01:16;3.33;;;1.30;;
81697;SDS011;71109;52.514;5.708;2024-01-16T14:03:42;2.50;;;1.40;;
81697;SDS011;71109;52.514;5.708;2024-01-16T14:06:08;5.22;;;1.40;;
81697;SDS011;71109;52.514;5.708;2024-01-16T14:08:33;1.80;;;1.05;;
81697;SDS011;71109;52.514;5.708;2024-01-16T14:10:59;1.40;;;1.17;;
81697;SDS011;71109;52.514;5.708;2024-01-16T14:13:24;3.67;;;1.13;;
81697;SDS011;71109;52.514;5.708;2024-01-16T14:15:50;3.95;;;1.17;;
81697;SDS011;71109;52.514;5.708;2024-01-16T14:18:16;3.25;;;1.58;;
81697;SDS011;71109;52.514;5.708;2024-01-16T14:20:41;14.18;;;2.88;;
81697;SDS011;71109;52.514;5.708;2024-01-16T14:23:07;6.80;;;1.80;;
81697;SDS011;71109;52.514;5.708;2024-01-16T14:25:32;2.83;;;1.33;;
81697;SDS011;71109;52.514;5.708;2024-01-16T14:28:01;5.13;;;1.58;;
81697;SDS011;71109;52.514;5.708;2024-01-16T14:30:28;1.70;;;1.00;;
81697;SDS011;71109;52.514;5.708;2024-01-16T14:32:54;2.42;;;1.20;;
81697;SDS011;71109;52.514;5.708;2024-01-16T14:35:20;5.72;;;1.48;;
81697;SDS011;71109;52.514;5.708;2024-01-16T14:37:46;4.38;;;1.35;;
81697;SDS011;71109;52.514;5.708;2024-01-16T14:40:11;3.35;;;1.48;;
81697;SDS011;71109;52.514;5.708;2024-01-16T14:42:48;1.80;;;1.38;;
81697;SDS011;71109;52.514;5.708;2024-01-16T14:45:16;5.75;;;1.70;;
81697;SDS011;71109;52.514;5.708;2024-01-16T14:47:42;3.08;;;0.95;;
81697;SDS011;71109;52.514;5.708;2024-01-16T14:50:08;2.90;;;1.30;;